Time;durP1;ratioP1;P1;durP2;ratioP2;P2;SDS_P1;SDS_P2;PMS_P1;PMS_P2;Temp;Humidity;BMP_temperature;BMP_pressure;BME280_temperature;BME280_humidity;BME280_pressure;Samples;Min_cycle;Max_cycle;Signal;HPM_P1;HPM_P2
2021/11/26 00:02:09;;;;;;;87.15;29.50;;;;;;;-0.50;100.00;95666.66;4985023;28;20049;-62
2021/11/26 00:04:34;;;;;;;82.60;26.60;;;;;;;-0.43;100.00;95675.03;5004321;28;20045;-62
2021/11/26 00:06:59;;;;;;;87.82;28.70;;;;;;;-0.67;100.00;95664.00;4985158;28;20042;-64
2021/11/26 00:09:25;;;;;;;87.38;29.10;;;;;;;-0.57;100.00;95662.88;4994799;28;20596;-64
2021/11/26 00:11:50;;;;;;;83.93;29.63;;;;;;;-0.51;100.00;95656.22;4986241;28;20044;-64
2021/11/26 00:14:25;;;;;;;86.07;30.48;;;;;;;-0.67;100.00;95654.03;4996191;28;20782;-64
2021/11/26 00:16:58;;;;;;;81.55;27.85;;;;;;;-0.49;100.00;95646.72;5002652;28;20506;-63
2021/11/26 00:19:24;;;;;;;92.40;30.45;;;;;;;-0.57;100.00;95655.59;4995027;28;20557;-64
2021/11/26 00:21:51;;;;;;;90.03;27.80;;;;;;;-0.61;100.00;95663.53;4997133;28;20065;-64
2021/11/26 00:24:17;;;;;;;91.25;30.95;;;;;;;-0.68;100.00;95662.44;4995320;28;20034;-64
2021/11/26 00:26:44;;;;;;;86.28;27.15;;;;;;;-0.35;100.00;95656.50;5007232;28;20061;-62
2021/11/26 00:29:11;;;;;;;89.43;27.13;;;;;;;-0.33;100.00;95651.56;5005607;28;20042;-63
2021/11/26 00:31:37;;;;;;;87.15;27.30;;;;;;;-0.46;100.00;95651.44;5001359;28;20299;-66
2021/11/26 00:34:03;;;;;;;84.15;28.33;;;;;;;-0.52;100.00;95644.69;5000645;28;20125;-62
2021/11/26 00:36:28;;;;;;;85.03;28.40;;;;;;;-0.52;100.00;95647.38;4991083;28;20046;-63
2021/11/26 00:38:54;;;;;;;93.90;31.45;;;;;;;-0.73;100.00;95639.19;5002928;28;20060;-64
2021/11/26 00:41:20;;;;;;;88.72;30.52;;;;;;;-0.81;100.00;95634.59;4996829;28;20122;-64
2021/11/26 00:43:45;;;;;;;90.57;29.40;;;;;;;-0.79;100.00;95632.41;5001631;28;20112;-63
2021/11/26 00:46:12;;;;;;;99.80;32.78;;;;;;;-0.83;100.00;95632.25;4994675;28;20038;-63
2021/11/26 00:48:37;;;;;;;100.65;31.40;;;;;;;-0.82;100.00;95633.03;5002290;28;20567;-64
2021/11/26 00:51:03;;;;;;;98.00;33.25;;;;;;;-0.82;100.00;95630.34;4999741;28;20132;-64
2021/11/26 00:53:29;;;;;;;86.05;29.45;;;;;;;-0.82;100.00;95631.13;4998414;28;20058;-62
2021/11/26 00:55:54;;;;;;;90.85;27.25;;;;;;;-0.71;100.00;95636.19;4998296;28;20399;-63
2021/11/26 00:58:19;;;;;;;90.35;27.63;;;;;;;-0.64;100.00;95644.53;4991142;28;20045;-64
2021/11/26 01:00:45;;;;;;;85.35;28.75;;;;;;;-0.68;100.00;95633.63;5000236;28;20093;-64
2021/11/26 01:03:10;;;;;;;85.97;28.25;;;;;;;-0.64;100.00;95641.84;4980032;28;20164;-64
2021/11/26 01:05:36;;;;;;;88.50;29.63;;;;;;;-0.61;100.00;95623.19;5000214;28;20038;-65
2021/11/26 01:08:02;;;;;;;91.90;28.33;;;;;;;-0.64;100.00;95626.50;4994551;28;20030;-65
2021/11/26 01:10:28;;;;;;;94.78;29.33;;;;;;;-0.52;100.00;95625.84;4953738;28;20052;-65
2021/11/26 01:12:54;;;;;;;78.18;26.63;;;;;;;-0.55;100.00;95626.47;4996892;28;20073;-64
2021/11/26 01:15:24;;;;;;;91.93;28.25;;;;;;;-0.62;100.00;95620.81;4951199;28;20065;-63
2021/11/26 01:17:50;;;;;;;93.88;33.50;;;;;;;-0.78;100.00;95623.22;4958268;28;20039;-66
2021/11/26 01:20:18;;;;;;;88.25;28.10;;;;;;;-0.79;100.00;95600.16;4956436;28;20658;-65
2021/11/26 01:22:44;;;;;;;83.82;27.88;;;;;;;-0.76;100.00;95599.47;4954498;28;20073;-66
2021/11/26 01:25:12;;;;;;;83.93;26.67;;;;;;;-0.70;100.00;95605.47;4956868;28;20085;-63
2021/11/26 01:27:38;;;;;;;101.47;31.05;;;;;;;-0.79;100.00;95590.16;4959709;28;20051;-64
2021/11/26 01:30:20;;;;;;;94.03;29.23;;;;;;;-0.82;100.00;95582.72;4963793;28;20051;-62
2021/11/26 01:32:45;;;;;;;99.22;29.15;;;;;;;-0.85;100.00;95571.84;4970463;28;20053;-64
2021/11/26 01:35:11;;;;;;;91.82;28.30;;;;;;;-0.89;100.00;95573.59;4959373;28;20568;-64
2021/11/26 01:37:37;;;;;;;89.45;27.52;;;;;;;-0.85;100.00;95588.75;4961217;28;20683;-64
2021/11/26 01:40:05;;;;;;;99.93;28.65;;;;;;;-0.76;100.00;95575.28;4951975;28;20495;-63
2021/11/26 01:42:30;;;;;;;96.63;27.30;;;;;;;-0.72;100.00;95578.94;4960096;28;20531;-64
2021/11/26 01:44:56;;;;;;;90.43;27.17;;;;;;;-0.66;100.00;95580.31;4961836;28;20042;-64
2021/11/26 01:47:21;;;;;;;89.95;28.42;;;;;;;-0.79;100.00;95568.66;4959830;28;20205;-65
2021/11/26 01:49:47;;;;;;;94.43;29.40;;;;;;;-0.83;100.00;95556.97;4963959;28;20052;-64
2021/11/26 01:52:12;;;;;;;95.38;29.38;;;;;;;-0.91;100.00;95560.47;4961624;28;20174;-63
2021/11/26 01:54:38;;;;;;;103.10;30.33;;;;;;;-0.93;100.00;95567.28;4961078;28;20502;-62
2021/11/26 01:57:04;;;;;;;102.82;28.63;;;;;;;-0.92;100.00;95558.09;4965749;28;20046;-63
2021/11/26 01:59:31;;;;;;;105.50;29.27;;;;;;;-0.94;100.00;95561.09;4954607;28;20133;-64
2021/11/26 02:01:56;;;;;;;112.03;31.45;;;;;;;-0.95;100.00;95559.53;4960852;28;20404;-64
2021/11/26 02:04:22;;;;;;;97.95;28.98;;;;;;;-0.92;100.00;95560.78;4943847;28;20064;-65
2021/11/26 02:06:48;;;;;;;91.35;29.30;;;;;;;-0.92;100.00;95550.81;4958887;28;20431;-65
2021/11/26 02:09:13;;;;;;;98.85;31.40;;;;;;;-0.93;100.00;95562.69;4949280;28;20070;-65
2021/11/26 02:11:39;;;;;;;109.68;31.73;;;;;;;-0.94;100.00;95565.69;4960420;28;20031;-64
2021/11/26 02:14:05;;;;;;;107.13;31.83;;;;;;;-0.94;100.00;95560.31;4956393;28;20046;-63
2021/11/26 02:16:40;;;;;;;106.13;28.27;;;;;;;-0.93;100.00;95560.00;4956788;28;20039;-65
2021/11/26 02:19:05;;;;;;;111.10;31.67;;;;;;;-0.91;100.00;95562.38;4954113;28;20089;-64
2021/11/26 02:21:30;;;;;;;109.65;30.85;;;;;;;-0.92;100.00;95555.41;4963173;28;20046;-64
2021/11/26 02:23:56;;;;;;;99.18;29.42;;;;;;;-0.93;100.00;95545.78;4970734;28;20041;-66
2021/11/26 02:26:21;;;;;;;110.95;33.10;;;;;;;-0.93;100.00;95532.34;4950247;28;20180;-65
2021/11/26 02:28:47;;;;;;;103.72;30.05;;;;;;;-0.92;100.00;95533.91;4962280;28;20050;-66
2021/11/26 02:31:12;;;;;;;97.30;29.42;;;;;;;-0.93;100.00;95533.13;4955130;28;20157;-64
2021/11/26 02:33:38;;;;;;;112.35;29.42;;;;;;;-0.92;100.00;95528.53;4957462;28;20085;-63
2021/11/26 02:36:04;;;;;;;109.20;28.30;;;;;;;-0.93;100.00;95527.75;4951395;28;20129;-64
2021/11/26 02:38:29;;;;;;;108.55;29.35;;;;;;;-0.93;100.00;95521.59;4949788;28;20043;-63
2021/11/26 02:40:55;;;;;;;96.57;27.88;;;;;;;-0.94;100.00;95518.09;4960709;28;20053;-64
2021/11/26 02:43:21;;;;;;;108.30;29.25;;;;;;;-0.98;100.00;95517.94;4960844;28;20491;-63
2021/11/26 02:45:47;;;;;;;110.85;30.17;;;;;;;-0.98;100.00;95512.56;4973680;28;20066;-66
2021/11/26 02:48:14;;;;;;;102.60;29.05;;;;;;;-0.97;100.00;95514.16;4964040;28;20046;-64
2021/11/26 02:50:41;;;;;;;118.88;30.05;;;;;;;-0.97;100.00;95514.16;4962042;28;20046;-65
2021/11/26 02:53:06;;;;;;;108.55;30.10;;;;;;;-0.99;100.00;95513.69;4957148;28;20041;-64
2021/11/26 02:55:35;;;;;;;121.05;30.92;;;;;;;-0.97;100.00;95506.09;4963278;28;20047;-64
2021/11/26 02:58:02;;;;;;;113.55;30.23;;;;;;;-0.97;100.00;95508.00;4961023;28;20471;-64
2021/11/26 03:00:29;;;;;;;107.55;28.50;;;;;;;-0.99;100.00;95502.94;4958690;28;20042;-63
2021/11/26 03:02:57;;;;;;;116.50;31.42;;;;;;;-0.96;100.00;95496.13;4961351;28;20531;-65
2021/11/26 03:05:23;;;;;;;111.20;29.48;;;;;;;-0.91;100.00;95495.16;4953256;28;20134;-64
2021/11/26 03:07:49;;;;;;;104.38;28.40;;;;;;;-0.88;100.00;95491.81;4956909;28;20043;-64
2021/11/26 03:10:17;;;;;;;105.82;27.63;;;;;;;-0.69;100.00;95496.81;4956069;28;20507;-65
2021/11/26 03:12:48;;;;;;;106.22;29.70;;;;;;;-0.75;100.00;95492.75;4963446;28;20065;-65
2021/11/26 03:15:15;;;;;;;90.47;26.15;;;;;;;-0.68;100.00;95476.88;4951981;28;20047;-63
2021/11/26 03:17:41;;;;;;;108.13;29.80;;;;;;;-0.65;100.00;95481.59;4947190;28;20072;-64
2021/11/26 03:20:08;;;;;;;97.43;27.50;;;;;;;-0.51;100.00;95478.69;4950895;28;20495;-65
2021/11/26 03:22:34;;;;;;;98.47;28.50;;;;;;;-0.62;100.00;95473.66;4954790;28;20034;-65
2021/11/26 03:25:00;;;;;;;107.70;29.35;;;;;;;-0.85;100.00;95483.91;4957743;28;20050;-64
2021/11/26 03:27:25;;;;;;;93.97;26.52;;;;;;;-0.84;100.00;95476.66;4939734;28;20520;-64
2021/11/26 03:29:51;;;;;;;106.72;27.60;;;;;;;-0.84;100.00;95474.72;4945451;28;20050;-63
2021/11/26 03:32:16;;;;;;;96.90;26.60;;;;;;;-0.82;100.00;95469.03;4936677;28;20328;-65
2021/11/26 03:34:42;;;;;;;111.35;28.83;;;;;;;-0.82;100.00;95474.41;4939450;28;20050;-63
2021/11/26 03:37:07;;;;;;;100.20;29.42;;;;;;;-0.79;100.00;95471.09;4942116;28;20046;-64
2021/11/26 03:39:33;;;;;;;109.85;29.40;;;;;;;-0.77;100.00;95466.94;4943261;28;20047;-64
2021/11/26 03:41:58;;;;;;;95.55;27.55;;;;;;;-0.78;100.00;95454.59;4944118;28;20046;-64
2021/11/26 03:44:24;;;;;;;105.03;28.83;;;;;;;-0.53;100.00;95454.03;4935849;28;20623;-64
2021/11/26 03:46:49;;;;;;;97.60;27.13;;;;;;;-0.42;100.00;95458.69;4939645;28;20043;-64
2021/11/26 03:49:15;;;;;;;100.22;27.58;;;;;;;-0.58;100.00;95457.69;4942408;28;20054;-64
2021/11/26 03:51:40;;;;;;;101.15;26.48;;;;;;;-0.62;100.00;95456.75;4952118;28;20511;-65
2021/11/26 03:54:06;;;;;;;105.95;28.75;;;;;;;-0.72;100.00;95454.44;4954100;28;20038;-64
2021/11/26 03:56:31;;;;;;;94.95;27.63;;;;;;;-0.77;100.00;95452.72;4957025;28;20413;-65
2021/11/26 03:58:57;;;;;;;98.13;27.45;;;;;;;-0.81;100.00;95444.53;4959657;28;20395;-68
2021/11/26 04:01:23;;;;;;;97.15;27.33;;;;;;;-0.78;100.00;95445.75;4953181;28;20042;-64
2021/11/26 04:03:48;;;;;;;111.72;29.25;;;;;;;-0.82;100.00;95442.94;4956578;28;20043;-65
2021/11/26 04:06:13;;;;;;;112.40;28.88;;;;;;;-0.82;100.00;95440.25;4954758;28;20415;-65
2021/11/26 04:08:39;;;;;;;112.43;28.52;;;;;;;-0.87;100.00;95445.03;4958153;28;20039;-63
2021/11/26 04:11:05;;;;;;;105.90;27.33;;;;;;;-0.91;100.00;95446.78;4954942;28;20042;-62
2021/11/26 04:13:31;;;;;;;115.55;29.38;;;;;;;-0.99;100.00;95441.13;4958532;28;20138;-64
2021/11/26 04:16:02;;;;;;;114.50;29.63;;;;;;;-0.95;100.00;95435.91;4962094;28;20050;-65
2021/11/26 04:18:29;;;;;;;116.07;29.17;;;;;;;-0.85;100.00;95440.09;4960035;28;20483;-65
2021/11/26 04:20:54;;;;;;;113.75;29.90;;;;;;;-0.78;100.00;95435.00;4964560;28;20097;-65
2021/11/26 04:23:20;;;;;;;108.43;29.67;;;;;;;-0.82;100.00;95434.88;4960036;28;20433;-64
2021/11/26 04:25:45;;;;;;;107.32;29.58;;;;;;;-0.82;100.00;95434.88;4966766;28;20046;-64
2021/11/26 04:28:11;;;;;;;109.07;30.65;;;;;;;-0.84;100.00;95444.38;4963902;28;20035;-65
2021/11/26 04:30:36;;;;;;;106.32;29.42;;;;;;;-0.92;100.00;95434.44;4962078;28;20970;-66
2021/11/26 04:33:02;;;;;;;110.32;29.60;;;;;;;-1.02;100.00;95427.53;4961295;28;20412;-65
2021/11/26 04:35:28;;;;;;;110.35;29.92;;;;;;;-1.07;100.00;95427.72;4968393;28;20053;-63
2021/11/26 04:37:54;;;;;;;122.63;29.92;;;;;;;-1.02;100.00;95427.53;4965104;28;20039;-65
2021/11/26 04:40:20;;;;;;;118.10;30.75;;;;;;;-0.97;100.00;95424.69;4955769;28;20447;-64
2021/11/26 04:42:46;;;;;;;125.10;28.50;;;;;;;-0.87;100.00;95420.81;4954791;28;20045;-64
2021/11/26 04:45:13;;;;;;;105.70;27.45;;;;;;;-0.84;100.00;95426.34;4955941;28;20113;-62
2021/11/26 04:47:39;;;;;;;122.38;29.25;;;;;;;-0.71;100.00;95418.38;4957601;28;20047;-63
2021/11/26 04:50:07;;;;;;;109.07;28.40;;;;;;;-0.55;100.00;95413.22;4955953;28;20369;-64
2021/11/26 04:52:33;;;;;;;104.35;28.80;;;;;;;-0.71;100.00;95415.69;4963231;28;20050;-65
2021/11/26 04:54:58;;;;;;;106.65;27.10;;;;;;;-0.72;100.00;95419.47;4961393;28;20034;-63
2021/11/26 04:57:24;;;;;;;106.13;27.02;;;;;;;-0.68;100.00;95404.28;4948517;28;20074;-64
2021/11/26 04:59:49;;;;;;;102.80;26.65;;;;;;;-0.71;100.00;95404.94;4961727;28;20115;-63
2021/11/26 05:02:15;;;;;;;102.82;27.58;;;;;;;-0.84;100.00;95409.44;4949922;28;20049;-64
2021/11/26 05:04:40;;;;;;;109.70;27.55;;;;;;;-0.90;100.00;95408.84;4963051;28;20426;-63
2021/11/26 05:07:06;;;;;;;114.22;28.17;;;;;;;-0.96;100.00;95407.44;4956187;28;20089;-63
2021/11/26 05:09:32;;;;;;;109.55;28.27;;;;;;;-1.01;100.00;95404.91;4962886;28;20045;-65
2021/11/26 05:12:03;;;;;;;121.03;27.73;;;;;;;-1.04;100.00;95411.75;4962104;28;20070;-64
2021/11/26 05:14:32;;;;;;;131.90;31.38;;;;;;;-1.00;100.00;95412.66;4954601;28;20926;-64
2021/11/26 05:16:58;;;;;;;117.70;31.10;;;;;;;-0.93;100.00;95412.16;4962493;28;20047;-64
2021/11/26 05:19:24;;;;;;;118.45;30.33;;;;;;;-0.79;100.00;95406.56;4938025;28;20518;-65
2021/11/26 05:21:49;;;;;;;122.70;30.08;;;;;;;-0.91;100.00;95411.84;4961156;28;20423;-64
2021/11/26 05:24:14;;;;;;;120.13;29.73;;;;;;;-1.02;100.00;95398.75;4951089;28;20045;-65
2021/11/26 05:26:41;;;;;;;115.93;30.25;;;;;;;-1.05;100.00;95410.16;4962058;28;20098;-65
2021/11/26 05:29:08;;;;;;;113.38;28.52;;;;;;;-1.13;100.00;95407.50;4959641;28;20066;-65
2021/11/26 05:31:36;;;;;;;110.88;27.05;;;;;;;-1.13;100.00;95412.88;4973290;28;20059;-64
2021/11/26 05:34:06;;;;;;;122.10;29.38;;;;;;;-1.17;100.00;95410.03;4971271;28;20074;-64
2021/11/26 05:36:33;;;;;;;134.88;30.35;;;;;;;-1.14;100.00;95405.94;4962522;28;20155;-65
2021/11/26 05:38:58;;;;;;;134.32;30.88;;;;;;;-1.18;100.00;95401.19;4961331;28;20525;-65
2021/11/26 05:41:25;;;;;;;124.05;28.95;;;;;;;-1.18;100.00;95405.78;4947223;28;20055;-65
2021/11/26 05:43:51;;;;;;;127.72;29.45;;;;;;;-1.15;100.00;95399.78;4959149;28;20042;-66
2021/11/26 05:46:16;;;;;;;127.25;29.15;;;;;;;-1.12;100.00;95392.97;4951581;28;20074;-65
2021/11/26 05:48:42;;;;;;;127.82;30.02;;;;;;;-1.14;100.00;95397.88;4972892;28;20519;-66
2021/11/26 05:51:08;;;;;;;126.05;30.73;;;;;;;-1.13;100.00;95402.13;4950091;28;20491;-65
2021/11/26 05:53:33;;;;;;;109.93;27.40;;;;;;;-1.08;100.00;95391.19;4959842;28;20600;-66
2021/11/26 05:56:00;;;;;;;103.20;28.13;;;;;;;-1.07;100.00;95390.09;4960853;28;20117;-66
2021/11/26 05:58:27;;;;;;;103.30;25.77;;;;;;;-1.06;100.00;95387.09;4949207;28;20151;-65
2021/11/26 06:00:53;;;;;;;106.28;26.25;;;;;;;-1.16;100.00;95387.44;4970758;28;20034;-64
2021/11/26 06:03:19;;;;;;;101.10;27.33;;;;;;;-1.20;100.00;95383.84;4956907;28;20499;-64
2021/11/26 06:05:45;;;;;;;103.53;26.33;;;;;;;-1.13;100.00;95380.63;4961242;28;20058;-63
2021/11/26 06:08:10;;;;;;;99.22;25.88;;;;;;;-1.10;100.00;95375.41;4953907;28;20507;-63
2021/11/26 06:10:36;;;;;;;97.35;26.35;;;;;;;-1.05;100.00;95380.59;4961099;28;20121;-64
2021/11/26 06:13:02;;;;;;;80.13;22.70;;;;;;;-1.06;100.00;95387.09;4960085;28;20447;-64
2021/11/26 06:15:29;;;;;;;98.07;24.70;;;;;;;-1.14;100.00;95381.75;4937927;28;20058;-63
2021/11/26 06:17:55;;;;;;;89.18;24.88;;;;;;;-1.12;100.00;95374.94;4956224;28;20058;-65
2021/11/26 06:20:21;;;;;;;82.75;24.02;;;;;;;-1.22;100.00;95369.94;4955289;28;20070;-65
2021/11/26 06:22:47;;;;;;;94.43;26.60;;;;;;;-1.19;100.00;95364.72;4967691;28;20387;-65
2021/11/26 06:25:15;;;;;;;90.57;24.20;;;;;;;-1.25;100.00;95363.31;4950217;28;20045;-65
2021/11/26 06:27:41;;;;;;;112.53;26.52;;;;;;;-1.29;100.00;95367.75;4956989;28;20039;-64
2021/11/26 06:30:10;;;;;;;90.80;24.92;;;;;;;-1.26;100.00;95361.75;4951510;28;20448;-65
2021/11/26 06:32:36;;;;;;;102.45;28.02;;;;;;;-1.23;100.00;95360.28;4959216;28;20062;-63
2021/11/26 06:35:02;;;;;;;97.40;25.52;;;;;;;-1.23;100.00;95358.38;4960964;28;20038;-64
2021/11/26 06:37:28;;;;;;;111.60;27.55;;;;;;;-1.15;100.00;95362.16;4947945;28;20527;-63
2021/11/26 06:39:53;;;;;;;109.50;28.13;;;;;;;-1.11;100.00;95362.31;4960683;28;20051;-63
2021/11/26 06:42:19;;;;;;;100.88;27.45;;;;;;;-1.11;100.00;95360.41;4957470;28;20039;-63
2021/11/26 06:44:44;;;;;;;104.00;26.00;;;;;;;-1.18;100.00;95360.13;4960024;28;20118;-63
2021/11/26 06:47:09;;;;;;;108.82;28.27;;;;;;;-1.20;100.00;95355.06;4953512;28;20129;-63
2021/11/26 06:49:35;;;;;;;95.05;26.13;;;;;;;-1.15;100.00;95348.72;4954880;28;20049;-64
2021/11/26 06:52:00;;;;;;;101.70;26.75;;;;;;;-1.06;100.00;95349.47;4956908;28;20098;-63
2021/11/26 06:54:26;;;;;;;104.22;26.85;;;;;;;-0.91;100.00;95353.50;4947432;28;20047;-63
2021/11/26 06:56:52;;;;;;;109.53;25.73;;;;;;;-0.66;100.00;95354.44;4960934;28;20504;-64
2021/11/26 06:59:17;;;;;;;105.18;26.10;;;;;;;-0.82;100.00;95356.91;4949238;28;20062;-64
2021/11/26 07:01:43;;;;;;;90.22;25.55;;;;;;;-1.13;100.00;95356.44;4957234;28;20138;-65
2021/11/26 07:04:09;;;;;;;97.32;24.70;;;;;;;-1.18;100.00;95352.06;4948141;28;20065;-64
2021/11/26 07:06:36;;;;;;;94.13;27.00;;;;;;;-1.15;100.00;95359.47;4969712;28;20708;-66
2021/11/26 07:09:03;;;;;;;102.30;29.60;;;;;;;-1.20;100.00;95359.66;4969367;28;20122;-66
2021/11/26 07:11:29;;;;;;;99.63;27.15;;;;;;;-1.24;100.00;95356.84;4961217;28;20047;-66
2021/11/26 07:13:54;;;;;;;114.90;33.08;;;;;;;-1.17;100.00;95351.75;4963934;28;20092;-66
2021/11/26 07:16:20;;;;;;;104.38;27.73;;;;;;;-1.04;100.00;95351.84;4965424;28;20042;-63
2021/11/26 07:18:45;;;;;;;106.15;26.77;;;;;;;-0.99;100.00;95354.31;4977714;28;20114;-65
2021/11/26 07:21:11;;;;;;;104.25;27.45;;;;;;;-0.95;100.00;95349.88;4973699;28;20569;-66
2021/11/26 07:23:36;;;;;;;92.97;25.08;;;;;;;-0.93;100.00;95344.97;4965234;28;20035;-66
2021/11/26 07:26:03;;;;;;;100.03;27.38;;;;;;;-0.94;100.00;95342.59;4968395;28;20100;-62
2021/11/26 07:28:29;;;;;;;102.07;27.60;;;;;;;-0.89;100.00;95337.81;4964780;28;20059;-64
2021/11/26 07:30:55;;;;;;;99.40;27.65;;;;;;;-0.91;100.00;95341.97;4965348;28;20104;-63
2021/11/26 07:33:21;;;;;;;93.05;30.58;;;;;;;-0.87;100.00;95338.28;4964772;28;20097;-63
2021/11/26 07:35:46;;;;;;;94.75;27.05;;;;;;;-0.87;100.00;95326.75;4966170;28;20038;-65
2021/11/26 07:38:12;;;;;;;96.43;28.08;;;;;;;-0.58;100.00;95331.28;4965547;28;20038;-64
2021/11/26 07:40:41;;;;;;;91.22;25.77;;;;;;;-0.69;100.00;95324.72;4962182;28;20073;-64
2021/11/26 07:43:09;;;;;;;87.85;24.88;;;;;;;-0.75;100.00;95328.72;4939343;28;20177;-65
2021/11/26 07:45:34;;;;;;;94.72;26.33;;;;;;;-0.57;100.00;95324.78;4973690;28;20129;-65
2021/11/26 07:48:00;;;;;;;99.20;27.08;;;;;;;-0.43;100.00;95329.91;4973405;28;20589;-66
2021/11/26 07:50:25;;;;;;;85.40;25.50;;;;;;;-0.27;100.00;95327.38;4961591;28;20150;-64
2021/11/26 07:52:51;;;;;;;84.57;24.75;;;;;;;-0.36;100.00;95323.97;4974080;28;20574;-67
2021/11/26 07:55:16;;;;;;;79.07;22.95;;;;;;;-0.48;100.00;95322.81;4954327;28;20042;-64
2021/11/26 07:57:42;;;;;;;79.82;23.30;;;;;;;-0.40;100.00;95319.28;4968960;28;20054;-64
2021/11/26 08:00:10;;;;;;;84.20;24.88;;;;;;;-0.36;100.00;95323.97;4956865;28;20484;-65
2021/11/26 08:02:35;;;;;;;80.10;24.42;;;;;;;-0.33;100.00;95315.25;4948165;28;20043;-65
2021/11/26 08:05:01;;;;;;;76.68;25.42;;;;;;;-0.24;100.00;95315.97;4975078;28;20051;-64
2021/11/26 08:07:26;;;;;;;76.10;24.27;;;;;;;-0.06;100.00;95316.59;4977423;28;20047;-64
2021/11/26 08:09:52;;;;;;;72.63;23.55;;;;;;;-0.05;100.00;95308.19;4974274;28;20050;-65
2021/11/26 08:12:18;;;;;;;79.05;24.02;;;;;;;-0.17;100.00;95310.84;4957989;28;20501;-64
2021/11/26 08:14:44;;;;;;;70.47;21.27;;;;;;;0.01;100.00;95318.75;4976683;28;20503;-65
2021/11/26 08:17:09;;;;;;;71.35;22.58;;;;;;;0.12;100.00;95322.59;4959492;28;20050;-65
2021/11/26 08:19:35;;;;;;;68.03;23.65;;;;;;;0.29;100.00;95318.91;4957469;28;20897;-65
2021/11/26 08:22:00;;;;;;;72.97;25.23;;;;;;;0.57;100.00;95316.38;4964869;28;20094;-66
2021/11/26 08:24:26;;;;;;;76.13;22.92;;;;;;;0.72;100.00;95315.72;4957108;28;20097;-66
2021/11/26 08:26:52;;;;;;;67.88;22.63;;;;;;;0.80;100.00;95318.63;4974112;28;20511;-66
2021/11/26 08:29:17;;;;;;;68.72;22.20;;;;;;;0.92;100.00;95303.25;4957501;28;20131;-65
2021/11/26 08:31:44;;;;;;;62.38;21.15;;;;;;;0.98;100.00;95316.50;4972480;28;20059;-66
2021/11/26 08:34:10;;;;;;;65.57;22.48;;;;;;;1.01;100.00;95319.31;4955340;28;20043;-66
2021/11/26 08:36:37;;;;;;;63.72;20.52;;;;;;;1.01;100.00;95305.00;4957102;28;20110;-65
2021/11/26 08:39:05;;;;;;;63.97;21.75;;;;;;;0.82;100.00;95300.22;4963856;28;20043;-63
2021/11/26 08:41:31;;;;;;;67.57;23.23;;;;;;;0.50;100.00;95299.97;4938893;28;20046;-66
2021/11/26 08:43:56;;;;;;;69.85;25.17;;;;;;;0.37;100.00;95299.19;4963191;28;20039;-65
2021/11/26 08:46:22;;;;;;;68.97;24.13;;;;;;;0.16;100.00;95296.56;4966573;28;20680;-64
2021/11/26 08:48:48;;;;;;;75.22;23.98;;;;;;;0.13;100.00;95299.94;4971524;28;20069;-65
2021/11/26 08:51:13;;;;;;;72.43;24.90;;;;;;;0.14;100.00;95294.19;4965522;28;20105;-65
2021/11/26 08:53:46;;;;;;;68.95;24.50;;;;;;;0.23;100.00;95296.03;4965498;28;20050;-64
2021/11/26 08:56:16;;;;;;;71.18;23.55;;;;;;;0.33;100.00;95290.97;4953989;28;20045;-64
2021/11/26 08:58:45;;;;;;;67.38;23.70;;;;;;;0.37;100.00;95293.78;4970981;28;20053;-64
2021/11/26 09:01:11;;;;;;;64.72;22.55;;;;;;;0.49;100.00;95290.34;4964057;28;20121;-63
2021/11/26 09:03:36;;;;;;;61.92;20.95;;;;;;;0.68;100.00;95289.75;4963332;28;20042;-63
2021/11/26 09:06:04;;;;;;;60.33;21.75;;;;;;;0.72;100.00;95293.34;4971131;28;20118;-61
2021/11/26 09:08:31;;;;;;;63.20;21.42;;;;;;;0.80;100.00;95279.00;4934785;28;20070;-64
2021/11/26 09:10:57;;;;;;;71.25;22.85;;;;;;;0.90;100.00;95280.44;4955418;28;20126;-65
2021/11/26 09:13:22;;;;;;;59.60;22.70;;;;;;;0.89;100.00;95281.56;4956173;28;20606;-64
2021/11/26 09:15:48;;;;;;;54.85;21.15;;;;;;;0.93;100.00;95285.94;4967263;28;20078;-64
2021/11/26 09:18:15;;;;;;;53.35;20.38;;;;;;;1.13;100.00;95284.22;4959368;28;20047;-64
2021/11/26 09:20:41;;;;;;;53.97;21.02;;;;;;;1.20;100.00;95280.94;4966753;28;20043;-65
2021/11/26 09:23:09;;;;;;;53.72;21.42;;;;;;;1.28;100.00;95280.03;4958686;28;20035;-60
2021/11/26 09:25:36;;;;;;;55.65;20.73;;;;;;;1.13;100.00;95283.44;4961668;28;20043;-64
2021/11/26 09:28:02;;;;;;;55.53;21.45;;;;;;;1.06;100.00;95283.22;4956345;28;20337;-65
2021/11/26 09:30:30;;;;;;;55.25;20.25;;;;;;;0.99;100.00;95275.72;4917060;28;20080;-64
2021/11/26 09:32:56;;;;;;;52.25;20.42;;;;;;;1.08;100.00;95276.38;4965875;28;20427;-61
2021/11/26 09:35:22;;;;;;;61.20;21.60;;;;;;;1.22;100.00;95269.81;4972008;28;20066;-61
2021/11/26 09:37:48;;;;;;;53.15;20.65;;;;;;;1.12;100.00;95269.16;4978569;28;20035;-61
2021/11/26 09:40:16;;;;;;;54.78;21.13;;;;;;;1.14;100.00;95264.22;4972510;28;20043;-63
2021/11/26 09:42:43;;;;;;;55.35;22.73;;;;;;;1.20;100.00;95270.16;4957786;28;20042;-64
2021/11/26 09:45:17;;;;;;;57.40;21.23;;;;;;;1.20;100.00;95270.16;4952842;28;20043;-64
2021/11/26 09:47:42;;;;;;;53.75;21.23;;;;;;;1.00;100.00;95260.31;4960481;28;20053;-65
2021/11/26 09:50:09;;;;;;;53.55;21.33;;;;;;;1.06;100.00;95264.34;4955807;28;20035;-64
2021/11/26 09:52:39;;;;;;;49.35;19.70;;;;;;;1.19;100.00;95259.69;4958865;28;20074;-64
2021/11/26 09:55:05;;;;;;;;;;;;;;;1.31;100.00;95265.06;4954087;28;20395;-61
2021/11/26 09:57:32;;;;;;;49.13;19.60;;;;;;;1.41;100.00;95255.72;4957867;28;19921;-62
2021/11/26 09:59:57;;;;;;;49.80;19.58;;;;;;;1.45;100.00;95246.59;4959457;28;20518;-64
2021/11/26 10:02:22;;;;;;;49.92;20.27;;;;;;;1.51;100.00;95239.03;4949137;28;20880;-63
2021/11/26 10:05:00;;;;;;;53.60;20.63;;;;;;;1.50;100.00;95240.94;4961003;28;20054;-64
2021/11/26 10:07:26;;;;;;;56.53;22.67;;;;;;;1.57;100.00;95228.78;4950720;28;20074;-64
2021/11/26 10:09:52;;;;;;;50.05;19.35;;;;;;;1.67;100.00;95233.69;4957724;28;20441;-64
2021/11/26 10:12:18;;;;;;;50.53;20.35;;;;;;;1.75;100.00;95230.06;4959394;28;20050;-64
2021/11/26 10:14:46;;;;;;;52.15;20.52;;;;;;;1.94;100.00;95232.06;4966665;28;20034;-65
2021/11/26 10:17:23;;;;;;;50.00;20.00;;;;;;;1.87;100.00;95227.28;4960096;28;20038;-63
2021/11/26 10:19:57;;;;;;;47.08;20.52;;;;;;;1.86;100.00;95228.41;4960680;28;20043;-65
2021/11/26 10:22:37;;;;;;;48.78;19.13;;;;;;;1.92;100.00;95223.53;4960691;28;22229;-63
2021/11/26 10:25:15;;;;;;;57.67;24.50;;;;;;;1.94;100.00;95223.19;4961869;28;20041;-62
2021/11/26 10:27:57;;;;;;;55.20;23.60;;;;;;;1.94;100.00;95223.19;4955692;28;20042;-65
2021/11/26 10:30:25;;;;;;;50.97;22.60;;;;;;;2.08;100.00;95213.53;4933582;28;20393;-66
2021/11/26 10:32:58;;;;;;;47.33;19.45;;;;;;;2.14;100.00;95213.28;4956947;28;20050;-65
2021/11/26 10:35:30;;;;;;;50.47;20.05;;;;;;;2.07;100.00;95213.88;4933338;28;20051;-65
2021/11/26 10:37:58;;;;;;;51.92;21.23;;;;;;;2.11;100.00;95209.38;4959892;28;20074;-66
2021/11/26 10:40:26;;;;;;;51.40;21.48;;;;;;;2.01;100.00;95204.47;4955029;28;20644;-63
2021/11/26 10:42:52;;;;;;;49.42;20.05;;;;;;;2.10;100.00;95196.97;4940370;28;20087;-66
2021/11/26 10:46:37;;;;;;;45.92;19.63;;;;;;;2.05;100.00;95189.13;4953165;28;20047;-66
2021/11/26 10:51:29;;;;;;;51.88;21.10;;;;;;;1.67;100.00;95174.31;4956300;28;20039;-62
2021/11/26 10:57:03;;;;;;;52.42;20.60;;;;;;;1.74;100.00;95157.50;4938990;28;20128;-64
2021/11/26 10:59:31;;;;;;;54.30;20.88;;;;;;;1.75;100.00;95159.06;4953304;28;20105;-64
2021/11/26 11:01:57;;;;;;;55.95;20.77;;;;;;;1.70;100.00;95146.63;4960340;28;20438;-64
2021/11/26 11:04:25;;;;;;;54.13;20.90;;;;;;;1.84;100.00;95141.59;4956514;28;20110;-66
2021/11/26 11:07:05;;;;;;;49.33;18.67;;;;;;;1.42;100.00;95141.28;4961417;28;20512;-64
2021/11/26 11:09:41;;;;;;;55.63;21.08;;;;;;;1.40;100.00;95133.50;4952499;28;20190;-64
2021/11/26 11:12:07;;;;;;;52.58;20.60;;;;;;;1.29;100.00;95133.22;4954291;28;20043;-62
2021/11/26 11:14:33;;;;;;;59.53;22.02;;;;;;;1.19;100.00;95131.06;4959979;28;20051;-65